sensor_id;sensor_type;location;lat;lon;timestamp;temperature;humidity
70830;SHT30;58451;51.550;7.208;2023-02-01T00:00:38;6.02;83.80
70830;SHT30;58451;51.550;7.208;2023-02-01T00:02:10;6.05;83.72
70830;SHT30;58451;51.550;7.208;2023-02-01T00:03:42;6.09;83.62
70830;SHT30;58451;51.550;7.208;2023-02-01T00:05:14;6.11;83.52
70830;SHT30;58451;51.550;7.208;2023-02-01T00:06:45;6.14;83.47
70830;SHT30;58451;51.550;7.208;2023-02-01T00:08:17;6.16;83.45
70830;SHT30;58451;51.550;7.208;2023-02-01T00:09:49;6.17;83.32
70830;SHT30;58451;51.550;7.208;2023-02-01T00:11:21;6.21;83.30
70830;SHT30;58451;51.550;7.208;2023-02-01T00:12:54;6.22;83.15
70830;SHT30;58451;51.550;7.208;2023-02-01T00:14:26;6.23;83.10
70830;SHT30;58451;51.550;7.208;2023-02-01T00:16:04;6.25;83.00
70830;SHT30;58451;51.550;7.208;2023-02-01T00:17:38;6.26;82.80
70830;SHT30;58451;51.550;7.208;2023-02-01T00:19:11;6.28;82.63
70830;SHT30;58451;51.550;7.208;2023-02-01T00:20:46;6.28;82.25
70830;SHT30;58451;51.550;7.208;2023-02-01T00:22:18;6.29;82.05
70830;SHT30;58451;51.550;7.208;2023-02-01T00:23:50;6.29;81.70
70830;SHT30;58451;51.550;7.208;2023-02-01T00:25:22;6.29;81.07
70830;SHT30;58451;51.550;7.208;2023-02-01T00:26:53;6.30;81.27
70830;SHT30;58451;51.550;7.208;2023-02-01T00:28:26;6.32;81.13
70830;SHT30;58451;51.550;7.208;2023-02-01T00:29:58;6.32;80.90
70830;SHT30;58451;51.550;7.208;2023-02-01T00:31:30;6.32;81.05
70830;SHT30;58451;51.550;7.208;2023-02-01T00:33:03;6.31;80.87
70830;SHT30;58451;51.550;7.208;2023-02-01T00:34:34;6.32;80.83
70830;SHT30;58451;51.550;7.208;2023-02-01T00:36:07;6.32;80.78
70830;SHT30;58451;51.550;7.208;2023-02-01T00:37:40;6.32;80.78
70830;SHT30;58451;51.550;7.208;2023-02-01T00:39:13;6.32;79.93
70830;SHT30;58451;51.550;7.208;2023-02-01T00:40:45;6.32;80.00
70830;SHT30;58451;51.550;7.208;2023-02-01T00:42:17;6.30;79.20
70830;SHT30;58451;51.550;7.208;2023-02-01T00:43:50;6.32;79.45
70830;SHT30;58451;51.550;7.208;2023-02-01T00:45:22;6.32;79.55
70830;SHT30;58451;51.550;7.208;2023-02-01T00:46:54;6.33;79.48
70830;SHT30;58451;51.550;7.208;2023-02-01T00:48:26;6.33;78.72
70830;SHT30;58451;51.550;7.208;2023-02-01T00:49:58;6.34;78.18
70830;SHT30;58451;51.550;7.208;2023-02-01T00:51:31;6.36;78.03
70830;SHT30;58451;51.550;7.208;2023-02-01T00:53:03;6.38;77.58
70830;SHT30;58451;51.550;7.208;2023-02-01T00:54:35;6.41;77.22
70830;SHT30;58451;51.550;7.208;2023-02-01T00:56:08;6.42;76.68
70830;SHT30;58451;51.550;7.208;2023-02-01T00:57:41;6.43;76.92
70830;SHT30;58451;51.550;7.208;2023-02-01T00:59:13;6.45;76.83
70830;SHT30;58451;51.550;7.208;2023-02-01T01:00:45;6.46;76.77
70830;SHT30;58451;51.550;7.208;2023-02-01T01:02:17;6.48;76.88
70830;SHT30;58451;51.550;7.208;2023-02-01T01:03:55;6.48;76.52
70830;SHT30;58451;51.550;7.208;2023-02-01T01:05:29;6.50;76.57
70830;SHT30;58451;51.550;7.208;2023-02-01T01:07:01;6.51;76.07
70830;SHT30;58451;51.550;7.208;2023-02-01T01:08:33;6.51;75.83
70830;SHT30;58451;51.550;7.208;2023-02-01T01:10:06;6.51;74.95
70830;SHT30;58451;51.550;7.208;2023-02-01T01:11:39;6.53;75.67
70830;SHT30;58451;51.550;7.208;2023-02-01T01:13:11;6.54;75.77
70830;SHT30;58451;51.550;7.208;2023-02-01T01:14:42;6.53;75.25
70830;SHT30;58451;51.550;7.208;2023-02-01T01:16:14;6.54;75.53
70830;SHT30;58451;51.550;7.208;2023-02-01T01:17:47;6.53;75.12
70830;SHT30;58451;51.550;7.208;2023-02-01T01:19:19;6.51;74.75
70830;SHT30;58451;51.550;7.208;2023-02-01T01:20:50;6.52;75.28
70830;SHT30;58451;51.550;7.208;2023-02-01T01:22:22;6.52;74.67
70830;SHT30;58451;51.550;7.208;2023-02-01T01:23:54;6.52;75.12
70830;SHT30;58451;51.550;7.208;2023-02-01T01:25:26;6.53;74.80
70830;SHT30;58451;51.550;7.208;2023-02-01T01:26:58;6.53;74.40
70830;SHT30;58451;51.550;7.208;2023-02-01T01:28:30;6.54;74.62
70830;SHT30;58451;51.550;7.208;2023-02-01T01:30:02;6.53;74.47
70830;SHT30;58451;51.550;7.208;2023-02-01T01:31:34;6.53;74.70
70830;SHT30;58451;51.550;7.208;2023-02-01T01:33:05;6.53;74.42
70830;SHT30;58451;51.550;7.208;2023-02-01T01:34:37;6.53;74.57
70830;SHT30;58451;51.550;7.208;2023-02-01T01:36:10;6.53;74.85
70830;SHT30;58451;51.550;7.208;2023-02-01T01:37:43;6.51;74.63
70830;SHT30;58451;51.550;7.208;2023-02-01T01:39:15;6.50;74.72
70830;SHT30;58451;51.550;7.208;2023-02-01T01:40:47;6.51;74.60
70830;SHT30;58451;51.550;7.208;2023-02-01T01:42:21;6.51;74.55
70830;SHT30;58451;51.550;7.208;2023-02-01T01:45:32;6.50;74.58
70830;SHT30;58451;51.550;7.208;2023-02-01T01:47:05;6.49;74.75
70830;SHT30;58451;51.550;7.208;2023-02-01T01:48:37;6.49;74.88
70830;SHT30;58451;51.550;7.208;2023-02-01T01:50:09;6.50;75.10
70830;SHT30;58451;51.550;7.208;2023-02-01T01:51:52;6.49;74.97
70830;SHT30;58451;51.550;7.208;2023-02-01T01:53:33;6.48;75.03
70830;SHT30;58451;51.550;7.208;2023-02-01T01:55:16;6.48;74.93
70830;SHT30;58451;51.550;7.208;2023-02-01T01:56:53;6.49;75.03
70830;SHT30;58451;51.550;7.208;2023-02-01T01:58:30;6.49;74.77
70830;SHT30;58451;51.550;7.208;2023-02-01T02:00:07;6.47;74.75
70830;SHT30;58451;51.550;7.208;2023-02-01T02:01:45;6.47;74.92
70830;SHT30;58451;51.550;7.208;2023-02-01T02:03:19;6.48;74.85
70830;SHT30;58451;51.550;7.208;2023-02-01T02:04:56;6.50;74.72
70830;SHT30;58451;51.550;7.208;2023-02-01T02:06:37;6.51;74.48
70830;SHT30;58451;51.550;7.208;2023-02-01T02:08:19;6.52;74.53
70830;SHT30;58451;51.550;7.208;2023-02-01T02:09:52;6.53;74.63
70830;SHT30;58451;51.550;7.208;2023-02-01T02:11:31;6.53;74.62
70830;SHT30;58451;51.550;7.208;2023-02-01T02:13:03;6.54;74.83
70830;SHT30;58451;51.550;7.208;2023-02-01T02:14:35;6.56;74.85
70830;SHT30;58451;51.550;7.208;2023-02-01T02:18:15;6.57;74.72
70830;SHT30;58451;51.550;7.208;2023-02-01T02:27:15;6.57;74.90
70830;SHT30;58451;51.550;7.208;2023-02-01T02:32:13;6.53;74.77
70830;SHT30;58451;51.550;7.208;2023-02-01T02:34:24;6.52;74.98
70830;SHT30;58451;51.550;7.208;2023-02-01T02:36:08;6.51;74.90
70830;SHT30;58451;51.550;7.208;2023-02-01T02:42:05;6.49;74.73
70830;SHT30;58451;51.550;7.208;2023-02-01T02:44:35;6.49;74.75
70830;SHT30;58451;51.550;7.208;2023-02-01T02:46:38;6.47;74.63
70830;SHT30;58451;51.550;7.208;2023-02-01T02:50:36;6.44;74.72
70830;SHT30;58451;51.550;7.208;2023-02-01T02:52:27;6.43;74.55
70830;SHT30;58451;51.550;7.208;2023-02-01T02:54:23;6.42;74.63
70830;SHT30;58451;51.550;7.208;2023-02-01T02:56:21;6.40;74.63
70830;SHT30;58451;51.550;7.208;2023-02-01T02:58:14;6.39;74.63
70830;SHT30;58451;51.550;7.208;2023-02-01T03:00:08;6.38;74.78
70830;SHT30;58451;51.550;7.208;2023-02-01T03:02:04;6.39;74.75
70830;SHT30;58451;51.550;7.208;2023-02-01T03:03:56;6.38;74.47
70830;SHT30;58451;51.550;7.208;2023-02-01T03:05:43;6.37;74.35
70830;SHT30;58451;51.550;7.208;2023-02-01T03:09:35;6.36;74.12
70830;SHT30;58451;51.550;7.208;2023-02-01T03:11:12;6.34;74.00
70830;SHT30;58451;51.550;7.208;2023-02-01T03:12:46;6.34;74.03
70830;SHT30;58451;51.550;7.208;2023-02-01T03:14:29;6.32;74.00
70830;SHT30;58451;51.550;7.208;2023-02-01T03:18:00;6.32;73.93
70830;SHT30;58451;51.550;7.208;2023-02-01T03:19:45;6.31;73.70
70830;SHT30;58451;51.550;7.208;2023-02-01T03:23:12;6.30;73.78
70830;SHT30;58451;51.550;7.208;2023-02-01T03:24:51;6.28;73.75
70830;SHT30;58451;51.550;7.208;2023-02-01T03:26:27;6.30;73.62
70830;SHT30;58451;51.550;7.208;2023-02-01T03:28:04;6.29;73.45
70830;SHT30;58451;51.550;7.208;2023-02-01T03:29:45;6.30;73.68
70830;SHT30;58451;51.550;7.208;2023-02-01T03:31:27;6.28;73.22
70830;SHT30;58451;51.550;7.208;2023-02-01T03:33:00;6.27;73.30
70830;SHT30;58451;51.550;7.208;2023-02-01T03:34:42;6.26;73.37
70830;SHT30;58451;51.550;7.208;2023-02-01T03:39:57;6.25;73.30
70830;SHT30;58451;51.550;7.208;2023-02-01T03:43:24;6.24;73.15
70830;SHT30;58451;51.550;7.208;2023-02-01T03:45:07;6.24;73.25
70830;SHT30;58451;51.550;7.208;2023-02-01T03:48:31;6.24;73.22
70830;SHT30;58451;51.550;7.208;2023-02-01T03:50:05;6.23;72.95
70830;SHT30;58451;51.550;7.208;2023-02-01T03:52:05;6.23;72.82
70830;SHT30;58451;51.550;7.208;2023-02-01T03:53:42;6.22;72.88
70830;SHT30;58451;51.550;7.208;2023-02-01T03:55:21;6.24;72.77
70830;SHT30;58451;51.550;7.208;2023-02-01T03:56:57;6.24;72.98
70830;SHT30;58451;51.550;7.208;2023-02-01T03:58:36;6.23;72.98
70830;SHT30;58451;51.550;7.208;2023-02-01T04:00:13;6.23;73.03
70830;SHT30;58451;51.550;7.208;2023-02-01T04:01:53;6.22;73.00
70830;SHT30;58451;51.550;7.208;2023-02-01T04:03:26;6.23;73.03
70830;SHT30;58451;51.550;7.208;2023-02-01T04:05:00;6.23;73.12
70830;SHT30;58451;51.550;7.208;2023-02-01T04:06:32;6.22;73.05
70830;SHT30;58451;51.550;7.208;2023-02-01T04:08:06;6.23;73.13
70830;SHT30;58451;51.550;7.208;2023-02-01T04:09:38;6.23;73.08
70830;SHT30;58451;51.550;7.208;2023-02-01T04:11:09;6.25;73.18
70830;SHT30;58451;51.550;7.208;2023-02-01T04:12:41;6.29;73.20
70830;SHT30;58451;51.550;7.208;2023-02-01T04:14:13;6.30;73.37
70830;SHT30;58451;51.550;7.208;2023-02-01T04:15:46;6.30;73.37
70830;SHT30;58451;51.550;7.208;2023-02-01T04:17:21;6.31;73.23
70830;SHT30;58451;51.550;7.208;2023-02-01T04:18:52;6.31;73.27
70830;SHT30;58451;51.550;7.208;2023-02-01T04:20:24;6.33;73.37
70830;SHT30;58451;51.550;7.208;2023-02-01T04:21:56;6.32;73.33
70830;SHT30;58451;51.550;7.208;2023-02-01T04:23:28;6.33;73.50
70830;SHT30;58451;51.550;7.208;2023-02-01T04:25:00;6.35;73.57
70830;SHT30;58451;51.550;7.208;2023-02-01T04:26:32;6.35;73.58
70830;SHT30;58451;51.550;7.208;2023-02-01T04:28:04;6.35;73.62
70830;SHT30;58451;51.550;7.208;2023-02-01T04:29:36;6.35;73.48
70830;SHT30;58451;51.550;7.208;2023-02-01T04:31:08;6.36;73.62
70830;SHT30;58451;51.550;7.208;2023-02-01T04:32:39;6.36;73.67
70830;SHT30;58451;51.550;7.208;2023-02-01T04:34:11;6.37;73.62
70830;SHT30;58451;51.550;7.208;2023-02-01T04:35:43;6.38;73.62
70830;SHT30;58451;51.550;7.208;2023-02-01T04:37:15;6.39;73.57
70830;SHT30;58451;51.550;7.208;2023-02-01T04:40:31;6.44;73.65
70830;SHT30;58451;51.550;7.208;2023-02-01T04:42:03;6.43;73.63
70830;SHT30;58451;51.550;7.208;2023-02-01T04:43:35;6.46;73.68
70830;SHT30;58451;51.550;7.208;2023-02-01T04:45:07;6.46;73.53
70830;SHT30;58451;51.550;7.208;2023-02-01T04:46:40;6.48;73.65
70830;SHT30;58451;51.550;7.208;2023-02-01T04:48:12;6.48;73.60
70830;SHT30;58451;51.550;7.208;2023-02-01T04:49:44;6.50;73.52
70830;SHT30;58451;51.550;7.208;2023-02-01T04:51:16;6.50;73.48
70830;SHT30;58451;51.550;7.208;2023-02-01T04:52:49;6.53;73.48
70830;SHT30;58451;51.550;7.208;2023-02-01T04:54:21;6.53;73.43
70830;SHT30;58451;51.550;7.208;2023-02-01T04:55:53;6.55;73.48
70830;SHT30;58451;51.550;7.208;2023-02-01T04:57:25;6.55;73.58
70830;SHT30;58451;51.550;7.208;2023-02-01T04:58:57;6.55;73.60
70830;SHT30;58451;51.550;7.208;2023-02-01T05:00:29;6.55;73.60
70830;SHT30;58451;51.550;7.208;2023-02-01T05:02:01;6.54;73.70
70830;SHT30;58451;51.550;7.208;2023-02-01T05:03:33;6.54;73.67
70830;SHT30;58451;51.550;7.208;2023-02-01T05:05:06;6.52;73.68
70830;SHT30;58451;51.550;7.208;2023-02-01T05:06:38;6.53;73.70
70830;SHT30;58451;51.550;7.208;2023-02-01T05:08:10;6.52;73.75
70830;SHT30;58451;51.550;7.208;2023-02-01T05:09:42;6.51;73.72
70830;SHT30;58451;51.550;7.208;2023-02-01T05:11:14;6.53;73.67
70830;SHT30;58451;51.550;7.208;2023-02-01T05:13:04;6.52;73.77
70830;SHT30;58451;51.550;7.208;2023-02-01T05:14:55;6.51;73.80
70830;SHT30;58451;51.550;7.208;2023-02-01T05:16:27;6.49;73.88
70830;SHT30;58451;51.550;7.208;2023-02-01T05:17:59;6.48;73.88
70830;SHT30;58451;51.550;7.208;2023-02-01T05:19:31;6.47;74.00
70830;SHT30;58451;51.550;7.208;2023-02-01T05:21:03;6.44;74.08
70830;SHT30;58451;51.550;7.208;2023-02-01T05:22:35;6.44;74.18
70830;SHT30;58451;51.550;7.208;2023-02-01T05:24:07;6.44;74.20
70830;SHT30;58451;51.550;7.208;2023-02-01T05:25:51;6.46;74.22
70830;SHT30;58451;51.550;7.208;2023-02-01T05:27:22;6.47;74.22
70830;SHT30;58451;51.550;7.208;2023-02-01T05:28:54;6.47;74.27
70830;SHT30;58451;51.550;7.208;2023-02-01T05:30:26;6.47;74.28
70830;SHT30;58451;51.550;7.208;2023-02-01T05:31:58;6.47;74.30
70830;SHT30;58451;51.550;7.208;2023-02-01T05:33:45;6.47;74.30
70830;SHT30;58451;51.550;7.208;2023-02-01T05:35:17;6.47;74.30
70830;SHT30;58451;51.550;7.208;2023-02-01T05:36:50;6.47;74.38
70830;SHT30;58451;51.550;7.208;2023-02-01T05:38:22;6.47;74.32
70830;SHT30;58451;51.550;7.208;2023-02-01T05:39:54;6.46;74.27
70830;SHT30;58451;51.550;7.208;2023-02-01T05:41:25;6.44;74.33
70830;SHT30;58451;51.550;7.208;2023-02-01T05:42:57;6.40;74.38
70830;SHT30;58451;51.550;7.208;2023-02-01T05:44:29;6.39;74.37
70830;SHT30;58451;51.550;7.208;2023-02-01T05:46:01;6.40;74.38
70830;SHT30;58451;51.550;7.208;2023-02-01T05:47:33;6.41;74.45
70830;SHT30;58451;51.550;7.208;2023-02-01T05:49:05;6.39;74.48
70830;SHT30;58451;51.550;7.208;2023-02-01T05:50:36;6.40;74.45
70830;SHT30;58451;51.550;7.208;2023-02-01T05:52:12;6.37;74.52
70830;SHT30;58451;51.550;7.208;2023-02-01T05:53:44;6.34;74.58
70830;SHT30;58451;51.550;7.208;2023-02-01T05:55:16;6.32;74.65
70830;SHT30;58451;51.550;7.208;2023-02-01T06:10:09;6.24;75.10
70830;SHT30;58451;51.550;7.208;2023-02-01T06:11:41;6.23;75.20
70830;SHT30;58451;51.550;7.208;2023-02-01T06:13:13;6.22;75.20
70830;SHT30;58451;51.550;7.208;2023-02-01T06:14:45;6.25;75.20
70830;SHT30;58451;51.550;7.208;2023-02-01T06:16:16;6.24;75.20
70830;SHT30;58451;51.550;7.208;2023-02-01T06:17:48;6.25;75.25
70830;SHT30;58451;51.550;7.208;2023-02-01T06:19:21;6.27;75.30
70830;SHT30;58451;51.550;7.208;2023-02-01T06:20:54;6.27;75.27
70830;SHT30;58451;51.550;7.208;2023-02-01T06:22:28;6.28;75.25
70830;SHT30;58451;51.550;7.208;2023-02-01T06:24:00;6.28;75.28
70830;SHT30;58451;51.550;7.208;2023-02-01T06:25:31;6.28;75.30
70830;SHT30;58451;51.550;7.208;2023-02-01T06:27:03;6.29;75.30
70830;SHT30;58451;51.550;7.208;2023-02-01T06:28:35;6.30;75.38
70830;SHT30;58451;51.550;7.208;2023-02-01T06:30:07;6.31;75.37
70830;SHT30;58451;51.550;7.208;2023-02-01T06:31:39;6.30;75.40
70830;SHT30;58451;51.550;7.208;2023-02-01T06:33:12;6.30;75.37
70830;SHT30;58451;51.550;7.208;2023-02-01T06:34:46;6.31;75.32
70830;SHT30;58451;51.550;7.208;2023-02-01T06:36:18;6.33;75.32
70830;SHT30;58451;51.550;7.208;2023-02-01T06:37:52;6.34;75.27
70830;SHT30;58451;51.550;7.208;2023-02-01T06:39:24;6.34;75.15
70830;SHT30;58451;51.550;7.208;2023-02-01T06:40:56;6.36;75.20
70830;SHT30;58451;51.550;7.208;2023-02-01T06:42:29;6.35;75.20
70830;SHT30;58451;51.550;7.208;2023-02-01T06:44:01;6.37;75.27
70830;SHT30;58451;51.550;7.208;2023-02-01T06:45:33;6.39;75.32
70830;SHT30;58451;51.550;7.208;2023-02-01T06:47:05;6.39;75.25
70830;SHT30;58451;51.550;7.208;2023-02-01T06:48:39;6.39;75.22
70830;SHT30;58451;51.550;7.208;2023-02-01T06:50:12;6.40;75.08
70830;SHT30;58451;51.550;7.208;2023-02-01T06:51:44;6.39;75.08
70830;SHT30;58451;51.550;7.208;2023-02-01T06:53:16;6.39;75.08
70830;SHT30;58451;51.550;7.208;2023-02-01T06:54:48;6.40;75.08
70830;SHT30;58451;51.550;7.208;2023-02-01T06:56:19;6.42;74.97
70830;SHT30;58451;51.550;7.208;2023-02-01T06:57:55;6.40;74.92
70830;SHT30;58451;51.550;7.208;2023-02-01T06:59:27;6.41;74.88
70830;SHT30;58451;51.550;7.208;2023-02-01T07:01:05;6.42;74.92
70830;SHT30;58451;51.550;7.208;2023-02-01T07:02:39;6.42;74.95
70830;SHT30;58451;51.550;7.208;2023-02-01T07:04:11;6.44;75.00
70830;SHT30;58451;51.550;7.208;2023-02-01T07:05:43;6.45;74.93
70830;SHT30;58451;51.550;7.208;2023-02-01T07:07:15;6.42;74.78
70830;SHT30;58451;51.550;7.208;2023-02-01T07:08:48;6.46;74.78
70830;SHT30;58451;51.550;7.208;2023-02-01T07:10:20;6.47;74.73
70830;SHT30;58451;51.550;7.208;2023-02-01T07:11:52;6.46;74.73
70830;SHT30;58451;51.550;7.208;2023-02-01T07:13:24;6.47;74.68
70830;SHT30;58451;51.550;7.208;2023-02-01T07:14:56;6.47;74.58
70830;SHT30;58451;51.550;7.208;2023-02-01T07:16:28;6.50;74.60
70830;SHT30;58451;51.550;7.208;2023-02-01T07:18:00;6.48;74.48
70830;SHT30;58451;51.550;7.208;2023-02-01T07:19:32;6.50;74.50
70830;SHT30;58451;51.550;7.208;2023-02-01T07:21:04;6.50;74.50
70830;SHT30;58451;51.550;7.208;2023-02-01T07:22:36;6.51;74.42
70830;SHT30;58451;51.550;7.208;2023-02-01T07:24:08;6.53;74.42
70830;SHT30;58451;51.550;7.208;2023-02-01T07:25:39;6.55;74.42
70830;SHT30;58451;51.550;7.208;2023-02-01T07:27:11;6.56;74.50
70830;SHT30;58451;51.550;7.208;2023-02-01T07:28:43;6.57;74.43
70830;SHT30;58451;51.550;7.208;2023-02-01T07:30:15;6.59;74.45
70830;SHT30;58451;51.550;7.208;2023-02-01T07:31:47;6.60;74.45
70830;SHT30;58451;51.550;7.208;2023-02-01T07:33:19;6.63;74.32
70830;SHT30;58451;51.550;7.208;2023-02-01T07:34:56;6.62;74.40
70830;SHT30;58451;51.550;7.208;2023-02-01T07:36:29;6.62;74.38
70830;SHT30;58451;51.550;7.208;2023-02-01T07:38:01;6.62;74.43
70830;SHT30;58451;51.550;7.208;2023-02-01T07:39:33;6.64;74.50
70830;SHT30;58451;51.550;7.208;2023-02-01T07:41:05;6.65;74.52
70830;SHT30;58451;51.550;7.208;2023-02-01T07:42:37;6.63;74.42
70830;SHT30;58451;51.550;7.208;2023-02-01T07:44:09;6.67;74.50
70830;SHT30;58451;51.550;7.208;2023-02-01T07:45:41;6.68;74.50
70830;SHT30;58451;51.550;7.208;2023-02-01T07:47:13;6.69;74.50
70830;SHT30;58451;51.550;7.208;2023-02-01T07:48:45;6.68;74.50
70830;SHT30;58451;51.550;7.208;2023-02-01T07:50:16;6.68;74.58
70830;SHT30;58451;51.550;7.208;2023-02-01T07:51:49;6.69;74.53
70830;SHT30;58451;51.550;7.208;2023-02-01T07:53:20;6.69;74.47
70830;SHT30;58451;51.550;7.208;2023-02-01T07:54:52;6.70;74.57
70830;SHT30;58451;51.550;7.208;2023-02-01T07:56:24;6.68;74.48
70830;SHT30;58451;51.550;7.208;2023-02-01T07:57:57;6.68;74.43
70830;SHT30;58451;51.550;7.208;2023-02-01T07:59:30;6.67;74.53
70830;SHT30;58451;51.550;7.208;2023-02-01T08:01:01;6.68;74.58
70830;SHT30;58451;51.550;7.208;2023-02-01T08:02:51;6.68;74.55
70830;SHT30;58451;51.550;7.208;2023-02-01T08:04:23;6.69;74.53
70830;SHT30;58451;51.550;7.208;2023-02-01T08:05:55;6.70;74.60
70830;SHT30;58451;51.550;7.208;2023-02-01T08:07:27;6.70;74.62
70830;SHT30;58451;51.550;7.208;2023-02-01T08:08:59;6.70;74.62
70830;SHT30;58451;51.550;7.208;2023-02-01T08:10:31;6.70;74.63
70830;SHT30;58451;51.550;7.208;2023-02-01T08:12:03;6.71;74.68
70830;SHT30;58451;51.550;7.208;2023-02-01T08:13:35;6.73;74.70
70830;SHT30;58451;51.550;7.208;2023-02-01T08:15:08;6.76;74.63
70830;SHT30;58451;51.550;7.208;2023-02-01T08:16:40;6.74;74.57
70830;SHT30;58451;51.550;7.208;2023-02-01T08:18:11;6.73;74.70
70830;SHT30;58451;51.550;7.208;2023-02-01T08:19:47;6.74;74.70
70830;SHT30;58451;51.550;7.208;2023-02-01T08:21:23;6.74;74.65
70830;SHT30;58451;51.550;7.208;2023-02-01T08:23:07;6.74;74.62
70830;SHT30;58451;51.550;7.208;2023-02-01T08:24:40;6.72;74.60
70830;SHT30;58451;51.550;7.208;2023-02-01T08:26:17;6.73;74.65
70830;SHT30;58451;51.550;7.208;2023-02-01T08:27:55;6.72;74.65
70830;SHT30;58451;51.550;7.208;2023-02-01T08:29:28;6.73;74.70
70830;SHT30;58451;51.550;7.208;2023-02-01T08:31:03;6.74;74.78
70830;SHT30;58451;51.550;7.208;2023-02-01T08:32:38;6.74;74.78
70830;SHT30;58451;51.550;7.208;2023-02-01T08:34:10;6.77;74.70
70830;SHT30;58451;51.550;7.208;2023-02-01T08:35:43;6.84;74.73
70830;SHT30;58451;51.550;7.208;2023-02-01T08:37:15;6.86;74.57
70830;SHT30;58451;51.550;7.208;2023-02-01T08:38:47;6.89;74.47
70830;SHT30;58451;51.550;7.208;2023-02-01T08:40:19;6.88;74.45
70830;SHT30;58451;51.550;7.208;2023-02-01T08:41:53;6.92;74.42
70830;SHT30;58451;51.550;7.208;2023-02-01T08:43:43;6.91;74.48
70830;SHT30;58451;51.550;7.208;2023-02-01T08:45:17;6.93;74.47
70830;SHT30;58451;51.550;7.208;2023-02-01T08:46:51;6.96;74.35
70830;SHT30;58451;51.550;7.208;2023-02-01T08:48:22;6.99;74.40
70830;SHT30;58451;51.550;7.208;2023-02-01T08:49:54;7.03;74.33
70830;SHT30;58451;51.550;7.208;2023-02-01T08:51:26;7.09;74.22
70830;SHT30;58451;51.550;7.208;2023-02-01T08:52:58;7.13;74.25
70830;SHT30;58451;51.550;7.208;2023-02-01T08:54:30;7.18;74.07
70830;SHT30;58451;51.550;7.208;2023-02-01T08:56:02;7.24;73.75
70830;SHT30;58451;51.550;7.208;2023-02-01T08:57:35;7.28;73.68
70830;SHT30;58451;51.550;7.208;2023-02-01T08:59:07;7.33;73.57
70830;SHT30;58451;51.550;7.208;2023-02-01T09:00:39;7.37;73.50
70830;SHT30;58451;51.550;7.208;2023-02-01T09:02:12;7.34;73.25
70830;SHT30;58451;51.550;7.208;2023-02-01T09:03:46;7.28;73.43
70830;SHT30;58451;51.550;7.208;2023-02-01T09:05:18;7.24;73.57
70830;SHT30;58451;51.550;7.208;2023-02-01T09:06:53;7.21;73.60
70830;SHT30;58451;51.550;7.208;2023-02-01T09:08:26;7.22;73.50
70830;SHT30;58451;51.550;7.208;2023-02-01T09:09:59;7.25;73.50
70830;SHT30;58451;51.550;7.208;2023-02-01T09:11:35;7.28;73.42
70830;SHT30;58451;51.550;7.208;2023-02-01T09:13:07;7.26;73.43
70830;SHT30;58451;51.550;7.208;2023-02-01T09:14:40;7.25;73.40
70830;SHT30;58451;51.550;7.208;2023-02-01T09:16:11;7.28;73.52
70830;SHT30;58451;51.550;7.208;2023-02-01T09:17:44;7.28;73.58
70830;SHT30;58451;51.550;7.208;2023-02-01T09:19:17;7.29;73.55
70830;SHT30;58451;51.550;7.208;2023-02-01T09:20:57;7.30;73.43
70830;SHT30;58451;51.550;7.208;2023-02-01T09:22:29;7.32;73.43
70830;SHT30;58451;51.550;7.208;2023-02-01T09:24:01;7.36;73.45
70830;SHT30;58451;51.550;7.208;2023-02-01T09:25:36;7.32;73.22
70830;SHT30;58451;51.550;7.208;2023-02-01T09:27:09;7.32;73.32
70830;SHT30;58451;51.550;7.208;2023-02-01T09:28:41;7.32;73.25
70830;SHT30;58451;51.550;7.208;2023-02-01T09:30:13;7.30;73.18
70830;SHT30;58451;51.550;7.208;2023-02-01T09:31:45;7.27;73.23
70830;SHT30;58451;51.550;7.208;2023-02-01T09:33:33;7.28;73.23
70830;SHT30;58451;51.550;7.208;2023-02-01T09:35:05;7.31;73.13
70830;SHT30;58451;51.550;7.208;2023-02-01T09:36:37;7.34;73.17
70830;SHT30;58451;51.550;7.208;2023-02-01T09:38:09;7.37;72.93
70830;SHT30;58451;51.550;7.208;2023-02-01T09:39:41;7.41;72.82
70830;SHT30;58451;51.550;7.208;2023-02-01T09:41:19;7.44;72.77
70830;SHT30;58451;51.550;7.208;2023-02-01T09:43:36;7.42;72.80
70830;SHT30;58451;51.550;7.208;2023-02-01T09:45:17;7.43;72.70
70830;SHT30;58451;51.550;7.208;2023-02-01T09:47:16;7.48;72.50
70830;SHT30;58451;51.550;7.208;2023-02-01T09:48:53;7.51;72.60
70830;SHT30;58451;51.550;7.208;2023-02-01T09:52:10;7.53;72.42
70830;SHT30;58451;51.550;7.208;2023-02-01T09:53:46;7.52;72.53
70830;SHT30;58451;51.550;7.208;2023-02-01T10:01:03;7.47;72.53
70830;SHT30;58451;51.550;7.208;2023-02-01T10:02:42;7.47;72.58
70830;SHT30;58451;51.550;7.208;2023-02-01T10:04:14;7.47;72.40
70830;SHT30;58451;51.550;7.208;2023-02-01T10:08:08;7.53;72.42
70830;SHT30;58451;51.550;7.208;2023-02-01T10:25:13;7.83;71.32
70830;SHT30;58451;51.550;7.208;2023-02-01T10:28:50;7.80;71.33
70830;SHT30;58451;51.550;7.208;2023-02-01T10:30:33;7.77;71.22
70830;SHT30;58451;51.550;7.208;2023-02-01T10:32:19;7.74;71.30
70830;SHT30;58451;51.550;7.208;2023-02-01T10:33:57;7.71;71.45
70830;SHT30;58451;51.550;7.208;2023-02-01T10:35:33;7.68;71.42
70830;SHT30;58451;51.550;7.208;2023-02-01T10:37:11;7.66;71.43
70830;SHT30;58451;51.550;7.208;2023-02-01T10:38:55;7.64;71.18
70830;SHT30;58451;51.550;7.208;2023-02-01T10:40:30;7.67;71.23
70830;SHT30;58451;51.550;7.208;2023-02-01T10:42:03;7.64;71.18
70830;SHT30;58451;51.550;7.208;2023-02-01T10:43:35;7.64;71.32
70830;SHT30;58451;51.550;7.208;2023-02-01T10:45:11;7.65;71.32
70830;SHT30;58451;51.550;7.208;2023-02-01T10:46:49;7.68;71.30
70830;SHT30;58451;51.550;7.208;2023-02-01T10:48:22;7.68;71.20
70830;SHT30;58451;51.550;7.208;2023-02-01T10:52:29;7.69;71.08
70830;SHT30;58451;51.550;7.208;2023-02-01T10:54:11;7.69;71.15
70830;SHT30;58451;51.550;7.208;2023-02-01T10:55:52;7.69;70.95
70830;SHT30;58451;51.550;7.208;2023-02-01T10:57:26;7.72;71.10
70830;SHT30;58451;51.550;7.208;2023-02-01T10:59:02;7.73;71.15
70830;SHT30;58451;51.550;7.208;2023-02-01T11:00:39;7.78;71.28
70830;SHT30;58451;51.550;7.208;2023-02-01T11:04:07;7.72;70.98
70830;SHT30;58451;51.550;7.208;2023-02-01T11:05:45;7.74;70.93
70830;SHT30;58451;51.550;7.208;2023-02-01T11:07:23;7.73;71.00
70830;SHT30;58451;51.550;7.208;2023-02-01T11:08:58;7.70;70.98
70830;SHT30;58451;51.550;7.208;2023-02-01T11:10:40;7.70;71.00
70830;SHT30;58451;51.550;7.208;2023-02-01T11:13:58;7.73;71.02
70830;SHT30;58451;51.550;7.208;2023-02-01T11:15:33;7.78;71.00
70830;SHT30;58451;51.550;7.208;2023-02-01T11:18:45;7.85;70.82
70830;SHT30;58451;51.550;7.208;2023-02-01T11:20:34;7.87;70.93
70830;SHT30;58451;51.550;7.208;2023-02-01T11:22:14;7.89;70.83
70830;SHT30;58451;51.550;7.208;2023-02-01T11:23:46;7.94;70.77
70830;SHT30;58451;51.550;7.208;2023-02-01T11:25:18;7.96;70.68
70830;SHT30;58451;51.550;7.208;2023-02-01T11:26:53;7.98;70.67
70830;SHT30;58451;51.550;7.208;2023-02-01T11:28:29;8.04;70.53
70830;SHT30;58451;51.550;7.208;2023-02-01T11:30:05;8.12;70.48
70830;SHT30;58451;51.550;7.208;2023-02-01T11:31:37;8.12;70.37
70830;SHT30;58451;51.550;7.208;2023-02-01T11:33:13;8.16;70.43